createdAt,value
2018-09-29T00:00:44.677Z,10.14
2018-09-29T00:03:13.317Z,10.05
2018-09-29T00:05:41.845Z,10.14
2018-09-29T00:08:10.408Z,10.07
2018-09-29T00:10:38.965Z,10.09
2018-09-29T00:13:07.606Z,10.03
2018-09-29T00:15:36.173Z,10.10
2018-09-29T00:18:04.764Z,10.05
2018-09-29T00:20:33.325Z,9.98
2018-09-29T00:23:01.913Z,9.89
2018-09-29T00:25:30.469Z,9.98
2018-09-29T00:27:59.058Z,9.83
2018-09-29T00:30:27.605Z,9.86
2018-09-29T00:32:56.190Z,9.88
2018-09-29T00:35:24.745Z,9.82
2018-09-29T00:37:53.326Z,9.81
2018-09-29T00:40:21.894Z,9.71
2018-09-29T00:42:50.547Z,9.59
2018-09-29T00:45:19.121Z,9.59
2018-09-29T00:47:47.705Z,9.62
2018-09-29T00:50:16.241Z,9.70
2018-09-29T00:52:45.150Z,9.60
2018-09-29T00:55:13.705Z,9.53
2018-09-29T00:57:42.329Z,9.59
2018-09-29T01:00:10.876Z,9.57
2018-09-29T01:02:39.430Z,9.69
2018-09-29T01:05:08.053Z,9.56
2018-09-29T01:07:36.626Z,9.61
2018-09-29T01:10:05.307Z,9.64
2018-09-29T01:12:33.896Z,9.54
2018-09-29T01:15:02.531Z,9.50
2018-09-29T01:17:31.517Z,9.47
2018-09-29T01:20:00.109Z,9.52
2018-09-29T01:22:28.684Z,9.40
2018-09-29T01:24:57.334Z,9.31
2018-09-29T01:27:25.880Z,9.13
2018-09-29T01:30:00.968Z,9.20
2018-09-29T01:32:29.530Z,9.12
2018-09-29T01:34:58.117Z,9.13
2018-09-29T01:37:26.688Z,9.00
2018-09-29T01:39:55.260Z,9.17
2018-09-29T01:42:23.820Z,8.99
2018-09-29T01:44:52.404Z,8.97
2018-09-29T01:47:20.964Z,8.99
2018-09-29T01:49:49.545Z,9.03
2018-09-29T01:52:18.091Z,8.87
2018-09-29T01:54:46.657Z,9.00
2018-09-29T01:57:15.214Z,8.97
2018-09-29T01:59:44.064Z,8.81
2018-09-29T02:02:12.621Z,8.73
2018-09-29T02:04:41.205Z,8.75
2018-09-29T02:07:09.782Z,8.86
2018-09-29T02:09:38.464Z,8.83
2018-09-29T02:12:07.036Z,8.88
2018-09-29T02:14:35.663Z,8.94
2018-09-29T02:17:04.222Z,8.73
2018-09-29T02:19:32.809Z,8.84
2018-09-29T02:22:05.867Z,8.89
2018-09-29T02:24:37.642Z,8.88
2018-09-29T02:27:06.273Z,8.84
2018-09-29T02:29:34.849Z,8.78
2018-09-29T02:32:03.394Z,8.80
2018-09-29T02:34:32.052Z,8.85
2018-09-29T02:37:00.677Z,8.71
2018-09-29T02:39:29.277Z,8.74
2018-09-29T02:41:57.818Z,8.81
2018-09-29T02:44:26.394Z,8.75
2018-09-29T02:46:54.985Z,8.81
2018-09-29T02:49:23.771Z,8.75
2018-09-29T02:51:52.386Z,8.71
2018-09-29T02:54:21.225Z,8.67
2018-09-29T02:56:49.793Z,8.61
2018-09-29T02:59:18.386Z,8.71
2018-09-29T03:01:46.969Z,8.70
2018-09-29T03:04:15.590Z,8.71
2018-09-29T03:06:44.149Z,8.68
2018-09-29T03:09:12.707Z,8.72
2018-09-29T03:11:41.316Z,8.67
2018-09-29T03:14:10.121Z,8.63
2018-09-29T03:16:38.785Z,8.68
2018-09-29T03:19:07.412Z,8.62
2018-09-29T03:21:35.980Z,8.47
2018-09-29T03:24:04.639Z,8.45
2018-09-29T03:26:33.230Z,8.40
2018-09-29T03:29:01.916Z,8.47
2018-09-29T03:31:30.525Z,8.45
2018-09-29T03:33:59.078Z,8.48
2018-09-29T03:36:27.698Z,8.49
2018-09-29T03:38:56.269Z,8.49
2018-09-29T03:41:24.878Z,8.42
2018-09-29T03:43:53.445Z,8.39
2018-09-29T03:46:22.037Z,8.41
2018-09-29T03:48:50.590Z,8.37
2018-09-29T03:51:19.437Z,8.28
2018-09-29T03:53:48.023Z,8.22
2018-09-29T03:56:16.619Z,8.14
2018-09-29T03:58:45.166Z,8.21
2018-09-29T04:01:13.915Z,8.22
2018-09-29T04:03:42.472Z,8.32
2018-09-29T04:06:11.050Z,8.23
2018-09-29T04:08:39.617Z,8.11
2018-09-29T04:11:08.217Z,8.20
2018-09-29T04:13:36.810Z,8.16
2018-09-29T04:16:05.384Z,8.18
2018-09-29T04:18:34.168Z,8.17
2018-09-29T04:21:02.754Z,8.00
2018-09-29T04:23:31.302Z,8.04
2018-09-29T04:25:59.893Z,7.92
2018-09-29T04:28:28.430Z,7.95
2018-09-29T04:30:57.001Z,7.92
2018-09-29T04:33:25.546Z,7.90
2018-09-29T04:35:54.136Z,7.84
2018-09-29T04:38:22.705Z,7.82
2018-09-29T04:40:51.304Z,7.87
2018-09-29T04:43:20.007Z,7.89
2018-09-29T04:45:48.461Z,7.70
2018-09-29T04:48:17.025Z,7.85
2018-09-29T04:50:45.596Z,7.72
2018-09-29T04:53:14.132Z,7.78
2018-09-29T04:55:43.021Z,7.77
2018-09-29T04:58:11.572Z,7.66
2018-09-29T05:00:40.185Z,7.58
2018-09-29T05:03:08.748Z,7.65
2018-09-29T05:05:37.305Z,7.71
2018-09-29T05:08:06.094Z,7.66
2018-09-29T05:10:34.696Z,7.57
2018-09-29T05:13:04.475Z,7.75
2018-09-29T05:15:34.347Z,7.61
2018-09-29T05:18:05.580Z,7.55
2018-09-29T05:20:34.712Z,7.44
2018-09-29T05:23:09.452Z,7.49
2018-09-29T05:25:40.419Z,7.53
2018-09-29T05:28:11.369Z,7.52
2018-09-29T05:30:41.656Z,7.61
2018-09-29T05:33:11.397Z,7.56
2018-09-29T05:35:40.142Z,7.57
2018-09-29T05:38:11.474Z,7.47
2018-09-29T05:40:40.041Z,7.66
2018-09-29T05:43:08.666Z,7.61
2018-09-29T05:45:37.237Z,7.64
2018-09-29T05:48:05.903Z,7.60
2018-09-29T05:50:34.477Z,7.71
2018-09-29T05:53:03.065Z,7.63
2018-09-29T05:55:31.647Z,7.68
2018-09-29T05:58:01.868Z,7.76
2018-09-29T06:00:30.816Z,7.57
2018-09-29T06:03:01.266Z,7.75
2018-09-29T06:05:32.687Z,7.76
2018-09-29T06:08:03.289Z,7.82
2018-09-29T06:10:33.817Z,7.80
2018-09-29T06:13:04.292Z,7.90
2018-09-29T06:15:33.026Z,8.01
2018-09-29T06:18:02.147Z,7.90
2018-09-29T06:20:30.801Z,7.97
2018-09-29T06:22:59.391Z,8.04
2018-09-29T06:25:27.944Z,8.09
2018-09-29T06:27:56.645Z,8.13
2018-09-29T06:30:26.018Z,8.16
2018-09-29T06:32:54.593Z,8.19
2018-09-29T06:35:26.067Z,8.24
2018-09-29T06:37:56.440Z,8.29
2018-09-29T06:40:24.988Z,8.27
2018-09-29T06:42:53.593Z,8.31
2018-09-29T06:45:22.123Z,8.29
2018-09-29T06:47:50.789Z,8.30
2018-09-29T06:50:19.315Z,8.37
2018-09-29T06:52:47.901Z,8.42
2018-09-29T06:55:16.449Z,8.43
2018-09-29T06:57:45.030Z,8.48
2018-09-29T07:00:13.638Z,8.59
2018-09-29T07:02:42.211Z,8.61
2018-09-29T07:05:11.024Z,8.66
2018-09-29T07:07:39.647Z,8.65
2018-09-29T07:10:08.346Z,8.75
2018-09-29T07:12:38.119Z,8.83
2018-09-29T07:15:07.621Z,8.85
2018-09-29T07:17:36.306Z,8.98
2018-09-29T07:20:05.407Z,9.02
2018-09-29T07:22:35.349Z,9.16
2018-09-29T07:25:04.093Z,9.12
2018-09-29T07:27:32.661Z,9.19
2018-09-29T07:30:01.537Z,9.18
2018-09-29T07:32:36.806Z,9.14
2018-09-29T07:35:05.426Z,9.24
2018-09-29T07:37:35.589Z,9.27
2018-09-29T07:40:04.205Z,9.34
2018-09-29T07:42:32.848Z,9.43
2018-09-29T07:45:01.873Z,9.38
2018-09-29T07:47:30.872Z,9.48
2018-09-29T07:49:59.703Z,9.53
2018-09-29T07:52:28.265Z,9.49
2018-09-29T07:54:56.920Z,9.62
2018-09-29T07:57:25.434Z,9.74
2018-09-29T07:59:54.013Z,9.78
2018-09-29T08:02:22.580Z,9.81
2018-09-29T08:04:51.180Z,9.91
2018-09-29T08:07:19.747Z,9.96
2018-09-29T08:09:49.322Z,10.07
2018-09-29T08:12:19.703Z,10.13
2018-09-29T08:14:48.365Z,10.23
2018-09-29T08:17:16.913Z,10.32
2018-09-29T08:19:45.489Z,10.34
2018-09-29T08:22:16.048Z,10.42
2018-09-29T08:24:45.485Z,10.53
2018-09-29T08:27:14.044Z,10.58
2018-09-29T08:29:42.671Z,10.63
2018-09-29T08:32:11.263Z,10.69
2018-09-29T08:34:39.857Z,10.71
2018-09-29T08:37:09.048Z,10.79
2018-09-29T08:39:37.698Z,10.95
2018-09-29T08:42:06.019Z,10.98
2018-09-29T08:44:34.695Z,11.14
2018-09-29T08:47:04.063Z,11.18
2018-09-29T08:49:34.704Z,11.23
2018-09-29T08:52:03.272Z,11.39
2018-09-29T08:54:33.845Z,11.41
2018-09-29T08:57:02.483Z,11.46
2018-09-29T08:59:31.077Z,11.45
2018-09-29T09:01:59.650Z,11.58
2018-09-29T09:04:28.269Z,11.71
2018-09-29T09:06:56.834Z,11.72
2018-09-29T09:09:25.446Z,11.69
2018-09-29T09:11:53.977Z,11.80
2018-09-29T09:14:22.628Z,12.05
2018-09-29T09:16:53.094Z,12.10
2018-09-29T09:19:21.685Z,12.22
2018-09-29T09:21:50.302Z,12.16
2018-09-29T09:24:19.201Z,12.17
2018-09-29T09:26:47.745Z,12.24
2018-09-29T09:29:16.397Z,12.22
2018-09-29T09:31:44.973Z,12.30
2018-09-29T09:34:13.592Z,12.26
2018-09-29T09:36:42.176Z,12.30
2018-09-29T09:39:11.689Z,12.45
2018-09-29T09:41:40.734Z,12.49
2018-09-29T09:44:09.689Z,12.63
2018-09-29T09:46:38.249Z,12.64
2018-09-29T09:49:07.138Z,12.70
2018-09-29T09:51:35.749Z,12.78
2018-09-29T09:54:04.342Z,12.86
2018-09-29T09:56:32.953Z,12.93
2018-09-29T09:59:01.522Z,12.94
2018-09-29T10:01:34.729Z,12.92
2018-09-29T10:04:03.317Z,12.84
2018-09-29T10:06:31.931Z,12.91
2018-09-29T10:09:00.525Z,12.97
2018-09-29T10:11:29.158Z,12.97
2018-09-29T10:13:57.757Z,12.90
2018-09-29T10:16:26.344Z,13.21
2018-09-29T10:18:54.906Z,13.12
2018-09-29T10:21:23.529Z,13.11
2018-09-29T10:23:52.094Z,13.28
2018-09-29T10:26:20.698Z,13.49
2018-09-29T10:28:49.246Z,13.45
2018-09-29T10:31:17.853Z,13.48
2018-09-29T10:33:46.410Z,13.48
2018-09-29T10:36:15.031Z,13.64
2018-09-29T10:38:43.587Z,13.61
2018-09-29T10:41:12.208Z,13.61
2018-09-29T10:43:40.767Z,13.81
2018-09-29T10:46:09.381Z,13.88
2018-09-29T10:48:37.939Z,13.95
2018-09-29T10:51:06.602Z,13.99
2018-09-29T10:53:35.193Z,14.04
2018-09-29T10:56:03.809Z,13.91
2018-09-29T10:58:32.373Z,14.05
2018-09-29T11:01:00.993Z,14.12
2018-09-29T11:03:29.542Z,14.37
2018-09-29T11:05:58.192Z,14.30
2018-09-29T11:08:26.749Z,14.47
2018-09-29T11:10:55.380Z,14.35
2018-09-29T11:13:23.933Z,14.22
2018-09-29T11:15:52.620Z,14.35
2018-09-29T11:18:21.216Z,14.33
2018-09-29T11:20:50.241Z,14.74
2018-09-29T11:23:18.839Z,14.69
2018-09-29T11:25:47.464Z,14.59
2018-09-29T11:28:16.065Z,14.70
2018-09-29T11:30:44.685Z,14.86
2018-09-29T11:33:13.302Z,14.85
2018-09-29T11:35:43.424Z,14.72
2018-09-29T11:38:12.135Z,14.94
2018-09-29T11:40:40.827Z,15.00
2018-09-29T11:43:09.672Z,15.09
2018-09-29T11:45:38.765Z,15.17
2018-09-29T11:48:07.426Z,15.13
2018-09-29T11:50:36.035Z,15.04
2018-09-29T11:53:04.678Z,15.29
2018-09-29T11:55:33.253Z,15.26
2018-09-29T11:58:01.867Z,15.24
2018-09-29T12:00:32.352Z,15.28
2018-09-29T12:03:01.451Z,15.27
2018-09-29T12:05:30.068Z,15.43
2018-09-29T12:07:58.756Z,15.38
2018-09-29T12:10:27.288Z,15.62
2018-09-29T12:12:55.905Z,15.56
2018-09-29T12:15:24.500Z,15.74
2018-09-29T12:17:53.217Z,15.75
2018-09-29T12:20:23.152Z,15.74
2018-09-29T12:22:51.763Z,15.99
2018-09-29T12:25:21.174Z,15.82
2018-09-29T12:27:50.936Z,16.15
2018-09-29T12:30:21.043Z,15.98
2018-09-29T12:32:50.310Z,16.18
2018-09-29T12:35:21.628Z,16.04
2018-09-29T12:37:55.349Z,16.16
2018-09-29T12:40:26.337Z,16.15
2018-09-29T12:42:58.129Z,16.21
2018-09-29T12:45:28.034Z,16.22
2018-09-29T12:47:58.289Z,16.05
2018-09-29T12:50:27.413Z,16.42
2018-09-29T12:52:56.041Z,16.62
2018-09-29T12:55:24.614Z,16.41
2018-09-29T12:57:53.413Z,16.45
2018-09-29T13:00:22.364Z,16.55
2018-09-29T13:02:51.937Z,16.94
2018-09-29T13:05:20.624Z,16.53
2018-09-29T13:07:52.981Z,16.67
2018-09-29T13:10:21.951Z,16.61
2018-09-29T13:12:53.726Z,16.88
2018-09-29T13:15:24.100Z,16.80
2018-09-29T13:17:54.063Z,16.93
2018-09-29T13:20:23.603Z,17.07
2018-09-29T13:22:53.547Z,16.96
2018-09-29T13:25:23.176Z,16.96
2018-09-29T13:27:51.856Z,16.79
2018-09-29T13:30:20.473Z,17.07
2018-09-29T13:32:50.004Z,17.17
2018-09-29T13:35:19.497Z,17.23
2018-09-29T13:37:48.944Z,17.20
2018-09-29T13:40:17.512Z,17.20
2018-09-29T13:42:46.118Z,17.17
2018-09-29T13:45:14.681Z,17.26
2018-09-29T13:47:43.273Z,17.24
2018-09-29T13:50:11.882Z,17.05
2018-09-29T13:52:40.488Z,17.14
2018-09-29T13:55:09.077Z,17.35
2018-09-29T13:57:37.668Z,17.21
2018-09-29T14:00:06.274Z,17.22
2018-09-29T14:02:34.945Z,17.27
2018-09-29T14:05:03.592Z,17.36
2018-09-29T14:07:32.152Z,17.52
2018-09-29T14:10:00.762Z,17.30
2018-09-29T14:12:29.332Z,17.50
2018-09-29T14:14:57.963Z,17.61
2018-09-29T14:17:26.533Z,17.52
2018-09-29T14:19:55.220Z,17.76
2018-09-29T14:22:23.725Z,17.65
2018-09-29T14:24:52.346Z,17.72
2018-09-29T14:27:20.949Z,17.88
2018-09-29T14:29:49.557Z,17.96
2018-09-29T14:32:18.120Z,17.99
2018-09-29T14:34:46.981Z,18.12
2018-09-29T14:37:15.557Z,18.10
2018-09-29T14:39:44.156Z,18.35
2018-09-29T14:42:12.714Z,18.24
2018-09-29T14:44:41.309Z,18.48
2018-09-29T14:47:09.897Z,18.53
2018-09-29T14:49:38.510Z,18.90
2018-09-29T14:52:07.268Z,18.75
2018-09-29T14:54:35.874Z,18.75
2018-09-29T14:57:04.445Z,19.04
2018-09-29T14:59:33.045Z,18.94
2018-09-29T15:02:01.661Z,19.43
2018-09-29T15:04:30.319Z,19.25
2018-09-29T15:06:58.902Z,19.42
2018-09-29T15:09:27.517Z,19.50
2018-09-29T15:11:56.078Z,19.38
2018-09-29T15:14:24.741Z,19.91
2018-09-29T15:16:53.332Z,19.80
2018-09-29T15:19:21.905Z,19.45
2018-09-29T15:21:50.468Z,19.80
2018-09-29T15:24:19.053Z,20.34
2018-09-29T15:26:47.607Z,19.91
2018-09-29T15:29:16.185Z,19.76
2018-09-29T15:31:45.035Z,19.34
2018-09-29T15:34:13.610Z,20.20
2018-09-29T15:36:42.145Z,19.70
2018-09-29T15:39:12.018Z,20.30
2018-09-29T15:41:40.660Z,19.49
2018-09-29T15:44:09.601Z,19.77
2018-09-29T15:46:38.576Z,19.26
2018-09-29T15:49:07.457Z,19.34
2018-09-29T15:51:36.637Z,19.47
2018-09-29T15:54:05.202Z,19.07
2018-09-29T15:56:33.878Z,19.31
2018-09-29T15:59:02.437Z,19.51
2018-09-29T16:01:31.024Z,18.69
2018-09-29T16:03:59.591Z,18.96
2018-09-29T16:06:28.189Z,18.63
2018-09-29T16:08:56.868Z,19.00
2018-09-29T16:11:25.450Z,18.73
2018-09-29T16:13:54.061Z,18.58
2018-09-29T16:16:22.675Z,18.43
2018-09-29T16:18:51.263Z,18.46
2018-09-29T16:21:19.926Z,18.28
2018-09-29T16:23:48.509Z,17.98
2018-09-29T16:26:17.117Z,17.67
2018-09-29T16:28:45.705Z,17.54
2018-09-29T16:31:14.313Z,17.40
2018-09-29T16:33:42.859Z,17.65
2018-09-29T16:36:16.022Z,17.30
2018-09-29T16:38:44.805Z,16.86
2018-09-29T16:41:21.231Z,16.69
2018-09-29T16:43:52.845Z,16.42
2018-09-29T16:46:21.904Z,16.26
2018-09-29T16:48:55.745Z,15.98
2018-09-29T16:51:26.286Z,15.65
2018-09-29T16:54:02.914Z,15.56
2018-09-29T16:56:34.808Z,15.39
2018-09-29T16:59:05.518Z,15.43
2018-09-29T17:01:37.949Z,15.26
2018-09-29T17:04:11.170Z,14.87
2018-09-29T17:06:42.546Z,14.84
2018-09-29T17:09:15.012Z,14.66
2018-09-29T17:11:46.959Z,14.52
2018-09-29T17:14:19.013Z,14.46
2018-09-29T17:16:51.289Z,14.15
2018-09-29T17:19:22.437Z,14.05
2018-09-29T17:21:56.044Z,13.96
2018-09-29T17:24:26.877Z,13.86
2018-09-29T17:26:57.593Z,13.63
2018-09-29T17:29:27.205Z,13.72
2018-09-29T17:32:01.908Z,13.34
2018-09-29T17:34:33.843Z,13.22
2018-09-29T17:37:02.986Z,13.22
2018-09-29T17:39:35.846Z,13.35
2018-09-29T17:42:07.853Z,13.15
2018-09-29T17:44:38.945Z,12.89
2018-09-29T17:47:11.562Z,12.85
2018-09-29T17:49:42.200Z,12.69
2018-09-29T17:52:12.079Z,12.55
2018-09-29T17:54:43.578Z,12.46
2018-09-29T17:57:18.847Z,12.26
2018-09-29T17:59:50.244Z,12.23
2018-09-29T18:02:18.981Z,12.07
2018-09-29T18:04:47.544Z,12.07
2018-09-29T18:07:16.109Z,11.56
2018-09-29T18:09:44.663Z,11.62
2018-09-29T18:12:13.241Z,11.34
2018-09-29T18:14:41.813Z,11.48
2018-09-29T18:17:10.400Z,11.43
2018-09-29T18:19:38.989Z,11.25
2018-09-29T18:22:07.652Z,11.33
2018-09-29T18:24:36.198Z,11.22
2018-09-29T18:27:04.789Z,11.27
2018-09-29T18:29:33.531Z,11.21
2018-09-29T18:32:02.105Z,10.83
2018-09-29T18:34:30.652Z,11.00
2018-09-29T18:36:59.231Z,10.93
2018-09-29T18:39:27.772Z,10.77
2018-09-29T18:41:56.361Z,10.44
2018-09-29T18:44:24.926Z,10.45
2018-09-29T18:46:53.601Z,10.54
2018-09-29T18:49:22.213Z,10.52
2018-09-29T18:51:50.851Z,10.34
2018-09-29T18:54:19.430Z,10.51
2018-09-29T18:56:48.032Z,10.55
2018-09-29T18:59:16.590Z,10.12
2018-09-29T19:01:45.168Z,10.21
2018-09-29T19:04:13.708Z,10.15
2018-09-29T19:06:42.353Z,10.04
2018-09-29T19:09:12.502Z,10.16
2018-09-29T19:11:41.645Z,10.02
2018-09-29T19:14:10.208Z,9.76
2018-09-29T19:16:38.764Z,9.74
2018-09-29T19:19:07.346Z,9.64
2018-09-29T19:21:36.020Z,9.36
2018-09-29T19:24:04.610Z,9.55
2018-09-29T19:26:33.166Z,9.59
2018-09-29T19:29:01.831Z,9.05
2018-09-29T19:31:30.380Z,9.30
2018-09-29T19:33:58.997Z,9.05
2018-09-29T19:36:27.558Z,9.21
2018-09-29T19:38:56.141Z,9.11
2018-09-29T19:41:24.709Z,8.94
2018-09-29T19:43:53.297Z,8.84
2018-09-29T19:46:21.874Z,9.09
2018-09-29T19:48:50.492Z,8.71
2018-09-29T19:51:19.098Z,8.74
2018-09-29T19:53:47.669Z,8.65
2018-09-29T19:56:17.053Z,8.72
2018-09-29T19:58:45.677Z,8.30
2018-09-29T20:01:14.283Z,8.11
2018-09-29T20:03:42.882Z,8.01
2018-09-29T20:06:11.451Z,8.32
2018-09-29T20:08:40.163Z,8.41
2018-09-29T20:11:08.810Z,8.30
2018-09-29T20:13:37.420Z,8.35
2018-09-29T20:16:06.070Z,8.38
2018-09-29T20:18:34.661Z,8.14
2018-09-29T20:21:03.212Z,8.02
2018-09-29T20:23:31.827Z,7.70
2018-09-29T20:26:00.365Z,7.44
2018-09-29T20:28:28.924Z,7.75
2018-09-29T20:30:57.466Z,7.66
2018-09-29T20:33:26.067Z,7.65
2018-09-29T20:35:54.886Z,7.66
2018-09-29T20:38:23.458Z,7.37
2018-09-29T20:40:52.016Z,7.25
2018-09-29T20:43:20.593Z,7.61
2018-09-29T20:45:49.135Z,7.54
2018-09-29T20:48:17.718Z,7.46
2018-09-29T20:50:49.143Z,7.42
2018-09-29T20:53:17.698Z,7.59
2018-09-29T20:55:46.240Z,7.53
2018-09-29T20:58:14.824Z,7.48
2018-09-29T21:00:43.375Z,6.94
2018-09-29T21:03:11.934Z,6.43
2018-09-29T21:05:40.497Z,6.68
2018-09-29T21:08:09.026Z,7.10
2018-09-29T21:10:37.581Z,6.94
2018-09-29T21:13:06.209Z,6.95
2018-09-29T21:15:34.765Z,7.30
2018-09-29T21:18:03.318Z,7.27
2018-09-29T21:20:31.908Z,7.32
2018-09-29T21:23:00.469Z,7.35
2018-09-29T21:25:29.082Z,7.28
2018-09-29T21:27:57.650Z,7.43
2018-09-29T21:30:26.233Z,7.22
2018-09-29T21:32:54.792Z,6.27
2018-09-29T21:35:23.393Z,6.36
2018-09-29T21:37:51.949Z,6.20
2018-09-29T21:40:20.554Z,6.28
2018-09-29T21:42:49.104Z,6.36
2018-09-29T21:45:17.709Z,6.56
2018-09-29T21:47:46.297Z,6.21
2018-09-29T21:50:14.892Z,5.97
2018-09-29T21:52:43.461Z,5.87
2018-09-29T21:55:12.120Z,6.22
2018-09-29T21:57:40.688Z,6.36
2018-09-29T22:00:09.432Z,6.56
2018-09-29T22:02:37.994Z,6.36
2018-09-29T22:05:12.937Z,6.08
2018-09-29T22:07:41.501Z,6.19
2018-09-29T22:10:09.688Z,6.27
2018-09-29T22:12:38.278Z,6.16
2018-09-29T22:15:07.065Z,6.25
2018-09-29T22:17:35.598Z,5.73
2018-09-29T22:20:04.194Z,5.69
2018-09-29T22:22:32.729Z,5.45
2018-09-29T22:25:01.305Z,5.76
2018-09-29T22:27:29.863Z,5.67
2018-09-29T22:29:58.427Z,5.68
2018-09-29T22:32:27.704Z,5.97
2018-09-29T22:34:56.270Z,6.19
2018-09-29T22:37:24.838Z,6.07
2018-09-29T22:39:53.438Z,5.64
2018-09-29T22:42:22.012Z,5.48
2018-09-29T22:44:50.555Z,5.79
2018-09-29T22:47:19.136Z,5.87
2018-09-29T22:49:47.677Z,6.05
2018-09-29T22:52:16.246Z,5.82
2018-09-29T22:54:44.837Z,5.68
2018-09-29T22:57:13.413Z,5.12
2018-09-29T22:59:41.940Z,5.21
2018-09-29T23:02:10.521Z,5.66
2018-09-29T23:04:39.064Z,5.44
2018-09-29T23:07:07.738Z,5.11
2018-09-29T23:09:36.312Z,4.43
2018-09-29T23:12:04.896Z,4.89
2018-09-29T23:14:33.518Z,5.00
2018-09-29T23:17:02.117Z,5.04
2018-09-29T23:19:30.674Z,4.93
2018-09-29T23:21:59.259Z,5.02
2018-09-29T23:24:27.806Z,5.40
2018-09-29T23:26:56.422Z,5.43
2018-09-29T23:29:24.962Z,5.35
2018-09-29T23:31:53.550Z,5.13
2018-09-29T23:34:22.095Z,5.03
2018-09-29T23:36:50.672Z,5.18
2018-09-29T23:39:19.257Z,5.25
2018-09-29T23:41:47.852Z,5.30
2018-09-29T23:44:16.388Z,5.27
2018-09-29T23:46:44.965Z,5.38
2018-09-29T23:49:13.505Z,5.44
2018-09-29T23:51:42.097Z,5.40
2018-09-29T23:54:10.693Z,5.68
2018-09-29T23:56:39.302Z,5.61
2018-09-29T23:59:07.964Z,5.68
